ImprimablePdf
Antwerp, 25/04/2010, BEL - DVV Antwerp Marathon & 10 Miles
Liste des rapports > Marathon - 21km
Recherche: Page: [1] 2 3 4 5 6 7 8
1545 Entrées
 
Les réclamations ne sont plus acceptées, les résultats sont considérés comme définitifs.
Catégorie
PosNrNomAgeIOCEquipeTempsTkmMoy.RangNomLocalité
1.3KIPKOSGEI LUKEKEN1:05:493:08 19.23-X
2.2LOTIRA DISMASKEN1:05:493:08 19.23-X
3.4KIMAITO NAHASHONKEN1:05:493:08 19.23-X
4.8KEBENEI ERNESTKEN1:05:493:08 19.23-X
5.5VAN DROOGENBROECK LANDER27BEL1:06:543:11 18.921SEHASSE
6.1VAN GEYTE GINO43BEL1:06:543:11 18.921M40ZWIJNAARDE
7.7NEVEN KOEN33BEL1:10:143:20 18.022SEHRIEMST
8.9TONTCHINSKI VLADEMIR43BEL1:10:143:20 18.022M40KURINGEN
9.6BEKKALI OMAR32BEL1:11:213:23 17.743SEHLIEGE
10.10MOERNAUT KRIS41BEL1:12:193:26 17.503M40DENDERMONDE
11.342HARDEE NEIL45WAL1:15:493:36 16.701M45MALPAS, NEWPORT
12.289DEWAELE JOOST36BEL1:16:073:37 16.631M35VICHTE
13.612RASSCHAERT EDDY43BEL1:16:073:37 16.634M40TOURNAI
14.770BEIRNAERT THOMAS33BEL1:17:163:40 16.384SEHBEERNEM
15.555JORISSEN MARK44BEL1:17:173:40 16.385M40ZWIJNDRECHT
16.1330STEEMAN KOEN41BEL1:17:173:40 16.386M40BORSBEEK (ANTW.)
17.1000PREIBISCH RALF48NLD1:17:173:40 16.382M45HALSTEREN
18.669VAN HOECK YVES39BEL1:17:313:41 16.332M35MOERBEKE-WAAS
19.379HENDRICKX JAN51BEL1:19:213:46 15.951M50HOOGSTRATEN
20.370LELIAERT ANDY35BEL1:19:553:48 15.843M35NEEROETEREN
21.369LAUWEN GINO32BEL1:20:043:48 15.815SEHWESTERLO
22.990PEETERS RUDY46BEL1:20:053:48 15.813M45TESSENDERLO
23.308MERTENS PAUL48BEL1:20:073:48 15.804M45NIJLEN
24.635BARTHOLOMEEUSEN ERIC46BEL1:20:153:49 15.775M45BRECHT
25.954LUCAS MICHAEL43BEL1:21:183:52 15.577M40BRUXELLES
26.876PARDAENS KAREL39BEL1:21:203:52 15.564M35HEVERLEE
27.378VANDERLINDEN MARC52BEL1:21:263:52 15.552M50BRUXELLES
28.12RUL KRISTOF38BEL1:21:453:53 15.485M35DEINZE
29.1235VAN ZAELEN MARCO37BEL1:22:003:54 15.446M35ANTWERPEN 1
30.890SWALENS DIRK47BEL1:22:133:54 15.406M45HASSELT
31.48GRILLO PINO44BEL1:22:543:56 15.278M40SCHOTEN
32.422LIBEER BASTIAAN25BEL1:23:013:57 15.256SEHMECHELEN
33.772VERMOENS PHILIP39BEL1:23:013:57 15.257M35ESSEN
34.815DESCAMPS OLIVIER46BEL1:23:263:58 15.177M45GENT
35.1806DEMOL Guy57BEL1:23:263:58 15.171M55
36.310LEUS FRANKIE48BEL1:23:273:58 15.178M45HERENTHOUT
37.1450VANCASTER PIERRE-HENRI37BEL1:23:503:59 15.108M35MARCHE LEZ-ECAUSSINNES
38.1428MILCAMPS THIERRY52BEL1:23:513:59 15.103M50LINKEBEEK
39.1072VAN STEEN SVEN44BEL1:23:533:59 15.099M40ZEMST
40.337RENS STEFAN42BEL1:23:553:59 15.0810M40MORKHOVEN
41.287VANDEWALLE PEDRO28BEL1:24:034:00 15.067SEHRUDDERVOORDE
42.317VAN CAUTEREN TOON49BEL1:24:064:00 15.059M45ZELE
43.1313VANMARCKE KURT45BEL1:24:164:00 15.0210M45WAREGEM
44.11TAELMAN LUCIEN53BEL1:24:204:00 15.014M50WAREGEM
45.594LEROY CHRISTOPHE39BEL1:24:234:00 15.009M35HALLE
46.449SMETS LEO46BEL1:24:444:01 14.9411M45OLEN
47.1400DIRCKX LUC41BEL1:24:514:02 14.9211M40LIER
48.371VETS DIRK41BEL1:24:524:02 14.9212M40NIJLEN
49.501CHAUHAN HARBANS50BEL1:24:544:02 14.915M50HEVERLEE
50.1270MEEUSEN BART40BEL1:24:564:02 14.9013M40HOOGSTRATEN
51.2336VERHEYEN WOUTER25BEL1:24:564:02 14.908SEHRILLAAR
52.311VERMEIREN DIRK41BEL1:24:564:02 14.9014M40WESTMALLE
53.328KANU ALEX41BEL1:24:574:02 14.9015M40ANTWERPEN 1
54.1484PERDIEUS VIKTORBEL1:25:154:03 14.85-VORSELAAR
55.608GEEROMS KRIS49BEL1:25:184:03 14.8412M45LONDERZEEL
56.329VAN WALLENDAEL WILLY43BEL1:25:194:03 14.8416M40KAPELLEN (ANTW.)
57.743WARNON BERNARD43BEL1:26:024:05 14.7117M40SINT-STEVENS-WOLUWE
58.593SCHILDERMANS BART43BEL1:26:114:06 14.6918M40OPOETEREN
59.319VAN NIEUWENHOVE JEROEN42BEL1:26:184:06 14.6719M40KESSEL-LO
60.521GEUDENS NICK31BEL1:26:224:06 14.669SEHKASTERLEE
61.622DE VOGELAERE JORIS48BEL1:26:234:06 14.6513M45WAREGEM
62.935JACOBS EDDY40BEL1:26:284:06 14.6420M40BUGGENHOUT
63.677DRIESEN WIM43BEL1:26:314:07 14.6321M40BEERSE
64.35CLOOSTERMANS PIETER-JAN24BEL1:26:344:07 14.6210SEHHEUSDEN-ZOLDER
65.617REYNDERS GEERT30BEL1:26:344:07 14.6211SEHBEERSE
66.1844NR 1844 XXX1:26:374:07 14.61-
67.845NELISSEN JOHNY38BEL1:26:414:07 14.6010M35BREE
68.1415JOOS DAVID41BEL1:26:424:07 14.6022M40LEBBEKE
69.1516VAN LOOVEREN BART29BEL1:26:464:07 14.5912SEHWUUSTWEZEL
70.486PHILIPPO JAN45BEL1:26:474:07 14.5914M45KALMTHOUT
71.1108VAN DROOGENBROECK DIRK40BEL1:26:474:07 14.5923M40NINOVE
72.1096VAN WASSENHOVEN PATRICK47BEL1:26:504:07 14.5815M45AALST
73.365DE BROUWER GEERT48BEL1:26:514:07 14.5816M45EREMBODEGEM
74.2252LESDANON FREDERIC45BEL1:26:514:08 14.5717M45SINT NIKLAAS
75.538D'HONDT HERMAN49BEL1:26:534:08 14.5718M45BAZEL
76.867ROELANDT PATRICK48BEL1:26:544:08 14.5719M45SINT-NIKLAAS
77.1038ADEM WOUTER30BEL1:26:544:08 14.5713SEHBRUGGE
78.1028ROGIER JOSSE51BEL1:26:554:08 14.566M50ROOSDAAL
79.38VAN DE CAUTER Erwin48BEL1:26:554:08 14.5620M45
80.537KEUPPENS BENNY33BEL1:27:044:08 14.5414SEHBEERSE
81.509WIJNEN YVES35BEL1:27:084:08 14.5311M35MAASMECHELEN
82.659NICQUE LUC46BEL1:27:114:08 14.5221M45SINT-NIKLAAS
83.596VAN POEKE YVES42BEL1:27:164:09 14.5124M40LEDE
84.558VAN SPEYBROECK MAURICE53BEL1:27:164:09 14.507M50ERTVELDE
85.1259KUYSTERMANS TOM36BEL1:27:204:09 14.4912M35BLANKENBERGE
86.1554DIERYK Pascal42BEL1:27:204:09 14.4925M40
87.1505NUYTS PETER47BEL1:27:434:10 14.4322M45BALEN
88.554DE DECKER PETER46BEL1:27:484:10 14.4223M45WAASMUNSTER
89.47DEVRIENDT GUY46BEL1:27:584:11 14.3924M45SCHERPENHEUVEL
90.1366TERMONIA PIET39BEL1:27:594:11 14.3913M35GERAARDSBERGEN
91.514VANDEVENNE BART34BEL1:27:594:11 14.3915SEHWINKSELE
92.420VER ELST JAN52BEL1:28:034:11 14.388M50HERSELT
93.2265VANHEE MARNIX52BEL1:28:044:11 14.379M50TEMSE
94.802JANSSEN GUNTER42BEL1:28:054:11 14.3726M40RETIE
95.2425STEENSSENS HENDRIK47BEL1:28:114:11 14.3525M45TIELRODE
96.2050VANDERINDEN Robbi45BEL1:28:114:11 14.3526M45
97.1398LINDEKENS ANDRE39BEL1:28:124:11 14.3514M35FOSSES-LA-VILLE
98.2073NR 2073 XXX1:28:164:12 14.34-
99.637NR 637 XXX1:28:194:12 14.33-
100.1033BACKAERT DIMITRI42BEL1:28:204:12 14.3327M40MOORSEL
101.1803FESTJENS Peter38BEL1:28:204:12 14.3315M35
102.2256VAN EETVELT IVAN40BEL1:28:214:12 14.3328M40VRASENE
103.559DE PAUW KURT39BEL1:28:214:12 14.3316M35WILLEBROEK
104.1295VAN DE VELDE GUIDO43BEL1:28:214:12 14.3329M40KRUIBEKE
105.1148VAN DER NEUT CHRIS49NLD1:28:214:12 14.3327M45AMSTERDAM
106.2362WIJNANTS EDDY52BEL1:28:224:12 14.3210M50BOUWEL
107.872KINNE IVAN47BEL1:28:234:12 14.3228M45ZEMST
108.502DEBLAUWE SERGE45BEL1:28:234:12 14.3229M45ICHTEGEM
109.1390VAN RENTERGHEM KWINTEN24BEL1:28:234:12 14.3216SEHMARIAKERKE
110.785VAN CASTER ERIC38GBR1:28:244:12 14.3217M35CHELMSFORD
111.1097DAEMS ERIK40BEL1:28:254:12 14.3230M40TIELEN
112.1277VAN RYSSELBERGHE JOHAN38BEL1:28:254:12 14.3218M35LAARNE
113.579HOSTENS IVAN47BEL1:28:254:12 14.3230M45HANDZAME
114.484DOMS DIETER28BEL1:28:264:12 14.3217SEHWAARLOOS
115.1242VAN DE WYNGAERT JOS27BEL1:28:264:12 14.3118SEHMERKSEM
116.1042DAEMS JAN35BEL1:28:264:12 14.3119M35LEUVEN
117.405THEUNISSEN IWAN38NLD1:28:264:12 14.3120M35LANDGRAAF
118.982LOMME RONNY40BEL1:28:264:12 14.3131M40ZWIJNAARDE
119.578GEERTS LUC54BEL1:28:264:12 14.3111M50BEVEREN-WAAS
120.1391ROSE FREDERIC43FRA1:28:274:12 14.3132M40OUTREAU
121.816BOGAERTS STEVEN34BEL1:28:274:12 14.3119SEHBRECHT
122.1016COIBION PHILIPPE41BEL1:28:284:12 14.3133M40FREUX
123.504SNOEKS JOS49BEL1:28:284:12 14.3131M45EKSEL
124.1293VAN BRUWAENE RUDY58BEL1:28:294:12 14.312M55TIELT
125.446DEPESTEL POL50BEL1:28:294:12 14.3112M50HERENTHOUT
126.713MICHIELSE KRISTOF29BEL1:28:294:12 14.3020SEHBRASSCHAAT
127.440WATTHY JOHAN43BEL1:28:294:12 14.3034M40GISTEL
128.603VAN CAMP NICO36BEL1:28:304:12 14.3021M35BOECHOUT
129.1248SURKIJN ERIK45BEL1:28:334:12 14.2932M45LOKSBERGEN
130.832VERVUEREN STEVE36BEL1:28:344:12 14.2922M35VILVOORDE
131.551WILLEM CORNELIS54BEL1:28:434:13 14.2713M50TERNAT
132.565BOUSSAERT DENIS52FRA1:28:444:13 14.2714M50ONNAING
133.507WITTE RINUS48NLD1:28:514:13 14.2533M45MIDDELBURG
134.1304VAN DEN BOGAERT TOM34BEL1:28:524:13 14.2421SEHWICHELEN
135.1282DERKS HENKNLD1:29:004:14 14.22-HAARLEM
136.322VANDEBEEK PATRICK36BEL1:29:014:14 14.2223M35AARSCHOT
137.1558STEENS Luc41BEL1:29:014:14 14.2235M40
138.858VAN HIEL NICO46BEL1:29:274:15 14.1534M45KEERBERGEN
139.434BEDOUET YANN41BEL1:29:404:15 14.1236M40FRANCE
140.1025CATTEAU STAN38BEL1:29:444:16 14.1124M35KESSEL-LO
141.1419AERNOUTS PAUL37BEL1:29:484:16 14.1025M35WUUSTWEZEL
142.199WILS GEERT28BEL1:29:514:16 14.0922SEHAARTSELAAR
143.879VERMEIR DIRK45BEL1:29:534:16 14.0835M45LONDERZEEL
144.1261VAN DEN DRIES PASCAL44BEL1:29:564:16 14.0837M40MECHELEN
145.1156HERREBOUT STEFAAN39BEL1:29:564:16 14.0726M35SINT-MICHIELS
146.228VANHEE KOBE33BEL1:29:584:16 14.0723SEHDEINZE
147.2020PRESUTTI Francesco48BEL1:30:014:17 14.0636M45
148.675BRUYNEEL ALAIN47BEL1:30:054:17 14.0537M45SINT-AMANDSBERG
149.1388LEUSE RONNY45BEL1:30:174:17 14.0238M45LAAKDAL
150.1445VANTYGHEM VINCENT38BEL1:30:204:17 14.0127M35EERNEGEM
151.1555CORNELIS Filip42BEL1:30:214:17 14.0138M40
152.533VAN LOON ANDY36BEL1:30:304:18 13.9928M35BOOM
153.1184KERENS PHILIPPE44BEL1:30:344:18 13.9839M40JEMEPPE-SUR-MEUSE
154.782FVAN LEEUWEN LIESBETH46NLD1:30:344:18 13.981F45VOORSCHOTEN
155.570FDUPONT ANNE-MARIE37BEL1:30:384:18 13.971F35BLANKENBERGE
156.239DE MEESTER JEROEN30BEL1:30:424:18 13.9624SEHRANST
157.441MEERT MARCEL52BEL1:30:424:18 13.9515M50SINT-KATHERINA-LOMBEEK
158.1829PETTEAU Benjamin26BEL1:30:494:19 13.9425SEH
159.1498BORZEE CHRISTOPHE32BEL1:30:514:19 13.9326SEHECAUSSINNES
160.924GEERTS PETER39BEL1:30:574:19 13.9229M35ZANDVLIET
161.755DE SCHRIJVER HENDRIK55BEL1:31:014:19 13.913M55AALST
162.421JOZIASSE GIEL48NLD1:31:084:20 13.8939M45GOES
163.863CARDON ERIC46BEL1:31:154:20 13.8740M45ZELE
164.1511PACKOLET WALTER54BEL1:31:174:20 13.8716M50ANTWERPEN 2
165.870WILLEMS PETER46BEL1:31:254:20 13.8541M45ZONHOVEN
166.2102DE COCK OlafBEL1:31:324:21 13.83-
167.2290VAN NEYGHEM David36BEL1:31:344:21 13.8330M35GRIMBERGEN
168.2311DE WOLF DAVID36BEL1:31:434:21 13.8031M35NIEUWKERKEN-WAAS
169.1030MEERSSCHAUT FRANKY50BEL1:31:454:21 13.8017M50HOBOKEN (ANTWERPEN)
170.2083MATTHYS Wim39BEL1:31:474:22 13.7932M35
171.1421JACOBS ROEL36BEL1:31:524:22 13.7833M35ARENDONK
172.1063BOEYE LUC48BEL1:31:534:22 13.7842M45ANTWERPEN WILRIJK
173.628FGUILLEMYN MARIJKE46BEL1:31:554:22 13.772F45POELKAPELLE
174.771DIERICK DIRK50BEL1:31:554:22 13.7718M50POELKAPELLE
175.96VERLEE DIDIER21BEL1:31:594:22 13.7627SEHSINAAI-WAAS
176.2384SEYNAEVE JAN44BEL1:32:014:22 13.7640M40GENT
177.2279JANSSENS GUY49BEL1:32:034:22 13.7543M45ST.NIKLAAS
178.470VAN HEIRZEELE BRAM28BEL1:32:134:23 13.7328SEHGENT
179.2408MISSANT BRUNOBEL1:32:154:23 13.72-VICHTE
180.1363DAUSIMONT MARC40BEL1:32:194:23 13.7141M40BRUXELLES 4
181.1182MAES PETER32BEL1:32:304:24 13.6929SEHLANGDORP
182.988BAETENS MARCO41BEL1:32:384:24 13.6742M40WILRIJK
183.1251SONDERGAARD PETER38BEL1:32:404:24 13.6634M35SCHAARBEEK
184.685PEIJNENBORG ERIC33NLD1:32:434:24 13.6530SEHOISTERWIJK
185.1268DENDAL DIDIER47BEL1:32:444:24 13.6544M45LIEGE 1
186.793SENECHAL SEBASTIEN38FRA1:32:494:24 13.6435M35OUTREAU
187.1423AVONTS ERIC48BEL1:32:554:25 13.6245M45WILRIJK (ANTWERPEN)
188.1847ORYE Jan47BEL1:32:584:25 13.6246M45
189.639CRAEYNEST JEAN-MARC41BEL1:32:594:25 13.6143M40BRUXELLES 8
190.1309VERCAIGNE BOB45FRA1:33:014:25 13.6147M45TOURCOING
191.463VANDERSCHAEGHE DRIES34BEL1:33:074:25 13.5931SEHASSEBROEK
192.753SPEELMANS STEFAN48BEL1:33:134:26 13.5848M45DIEST
193.2090STACHONIAK Pawel34BEL1:33:164:26 13.5732SEH
194.798LAMBRECHTS KRIS42BEL1:33:164:26 13.5744M40WIJGMAAL (BT.)
195.368VAN POUCKE NIEK36BEL1:33:194:26 13.5736M35SINT-KRUIS (BRUGGE)
196.964VAN MOERBEKE PAUL52BEL1:33:194:26 13.5619M50ESSEN
197.1274COECKELBERGHS KURT33BEL1:33:204:26 13.5633SEHHOBOKEN (ANTWERPEN)
198.2526PURRO RomanoBEL1:33:264:26 13.55-
199.1532VERSTRAETEN GEERT49BEL1:33:284:26 13.5449M45MELSELE
200.609BLASSON LAURENT31BEL1:33:324:27 13.5334SEHETTERBEEK
DNF: abandon; DSQ: disqualifié; Vitesse en km/h
ChronoRace - Electronic Timing - www.chronorace.be